createdAt,value
2022-10-01T00:01:19.450Z,8.90
2022-10-01T00:03:48.243Z,6.75
2022-10-01T00:06:18.781Z,4.32
2022-10-01T00:08:49.320Z,5.90
2022-10-01T00:11:19.822Z,4.13
2022-10-01T00:13:47.765Z,8.70
2022-10-01T00:16:18.679Z,6.32
2022-10-01T00:18:47.148Z,5.15
2022-10-01T00:21:18.700Z,10.00
2022-10-01T00:26:19.676Z,5.13
2022-10-01T00:28:48.504Z,6.63
2022-10-01T00:31:16.728Z,3.97
2022-10-01T00:33:44.099Z,7.85
2022-10-01T00:36:11.912Z,7.43
2022-10-01T00:38:40.548Z,8.00
2022-10-01T00:41:08.925Z,7.40
2022-10-01T00:43:40.288Z,5.18
2022-10-01T00:46:21.802Z,6.68
2022-10-01T00:49:01.213Z,5.72
2022-10-01T00:51:35.693Z,5.57
2022-10-01T00:54:19.419Z,5.65
2022-10-01T00:56:47.425Z,3.40
2022-10-01T00:59:16.599Z,5.88
2022-10-01T01:01:44.674Z,6.55
2022-10-01T01:04:17.610Z,9.55
2022-10-01T01:07:14.466Z,7.38
2022-10-01T01:09:47.215Z,4.50
2022-10-01T01:12:20.236Z,8.45
2022-10-01T01:14:59.578Z,7.60
2022-10-01T01:17:35.183Z,7.18
2022-10-01T01:20:22.612Z,3.50
2022-10-01T01:23:01.247Z,4.53
2022-10-01T01:25:41.400Z,8.93
2022-10-01T01:28:26.566Z,5.85
2022-10-01T01:30:58.282Z,5.55
2022-10-01T01:33:27.897Z,9.82
2022-10-01T01:36:09.344Z,5.10
2022-10-01T01:38:45.532Z,4.45
2022-10-01T01:41:15.895Z,8.20
2022-10-01T01:43:45.710Z,6.03
2022-10-01T01:46:17.974Z,6.72
2022-10-01T01:48:47.706Z,6.25
2022-10-01T01:51:37.902Z,5.18
2022-10-01T01:54:04.974Z,9.70
2022-10-01T01:56:32.468Z,7.78
2022-10-01T01:59:01.298Z,5.90
2022-10-01T02:01:49.586Z,7.40
2022-10-01T02:04:34.418Z,8.77
2022-10-01T02:07:22.561Z,6.88
2022-10-01T02:10:25.540Z,6.53
2022-10-01T02:13:09.186Z,11.52
2022-10-01T02:15:47.651Z,8.50
2022-10-01T02:18:36.328Z,7.57
2022-10-01T02:21:24.373Z,11.45
2022-10-01T02:23:58.350Z,12.65
2022-10-01T02:26:28.692Z,7.55
2022-10-01T02:29:01.486Z,10.00
2022-10-01T02:31:31.141Z,11.38
2022-10-01T02:34:01.450Z,10.63
2022-10-01T02:36:31.131Z,11.88
2022-10-01T02:39:00.690Z,12.15
2022-10-01T02:41:33.509Z,10.98
2022-10-01T02:44:11.877Z,11.07
2022-10-01T02:46:58.487Z,13.23
2022-10-01T02:49:30.532Z,13.73
2022-10-01T02:52:08.537Z,9.20
2022-10-01T02:54:44.298Z,17.80
2022-10-01T02:57:24.457Z,19.08
2022-10-01T02:59:52.083Z,14.02
2022-10-01T03:02:20.903Z,11.90
2022-10-01T03:04:50.645Z,17.08
2022-10-01T03:07:18.730Z,15.25
2022-10-01T03:09:45.899Z,16.48
2022-10-01T03:12:13.005Z,14.70
2022-10-01T03:14:40.072Z,14.02
2022-10-01T03:17:07.694Z,14.70
2022-10-01T03:19:34.828Z,16.85
2022-10-01T03:22:02.463Z,16.77
2022-10-01T03:24:30.002Z,15.45
2022-10-01T03:26:57.820Z,17.73
2022-10-01T03:29:25.749Z,17.15
2022-10-01T03:31:53.716Z,22.60
2022-10-01T03:34:21.452Z,21.73
2022-10-01T03:36:48.726Z,19.48
2022-10-01T03:39:15.833Z,20.02
2022-10-01T03:41:42.938Z,16.48
2022-10-01T03:44:09.995Z,18.65
2022-10-01T03:46:37.557Z,18.50
2022-10-01T03:49:04.684Z,18.02
2022-10-01T03:51:32.712Z,19.17
2022-10-01T03:54:00.226Z,18.75
2022-10-01T03:56:30.911Z,20.33
2022-10-01T03:58:57.979Z,19.27
2022-10-01T04:01:26.280Z,19.88
2022-10-01T04:03:53.958Z,19.20
2022-10-01T04:06:21.240Z,18.08
2022-10-01T04:08:48.464Z,18.40
2022-10-01T04:11:15.895Z,17.83
2022-10-01T04:13:42.986Z,18.80
2022-10-01T04:16:10.402Z,18.83
2022-10-01T04:18:37.712Z,20.70
2022-10-01T04:21:05.701Z,25.65
2022-10-01T04:23:32.782Z,18.63
2022-10-01T04:26:01.479Z,20.58
2022-10-01T04:28:29.326Z,18.80
2022-10-01T04:31:16.473Z,19.58
2022-10-01T04:33:43.551Z,19.95
2022-10-01T04:36:10.610Z,22.45
2022-10-01T04:38:38.305Z,20.95
2022-10-01T04:41:05.443Z,21.42
2022-10-01T04:43:32.747Z,21.60
2022-10-01T04:45:59.784Z,18.13
2022-10-01T04:48:26.841Z,21.63
2022-10-01T04:50:54.011Z,21.35
2022-10-01T04:53:21.063Z,24.48
2022-10-01T04:55:48.345Z,21.02
2022-10-01T04:58:15.516Z,15.63
2022-10-01T05:00:42.665Z,20.17
2022-10-01T05:03:10.062Z,20.80
2022-10-01T05:05:37.505Z,22.42
2022-10-01T05:08:04.828Z,22.00
2022-10-01T05:10:32.076Z,17.08
2022-10-01T05:13:01.430Z,21.52
2022-10-01T05:15:29.322Z,22.20
2022-10-01T05:17:56.559Z,21.75
2022-10-01T05:20:26.242Z,21.48
2022-10-01T05:22:54.675Z,20.67
2022-10-01T05:25:21.789Z,17.05
2022-10-01T05:27:49.265Z,23.75
2022-10-01T05:30:24.572Z,20.33
2022-10-01T05:32:59.878Z,18.33
2022-10-01T05:35:27.562Z,24.40
2022-10-01T05:37:58.947Z,21.42
2022-10-01T05:40:27.757Z,20.38
2022-10-01T05:42:56.685Z,22.50
2022-10-01T05:45:24.329Z,20.20
2022-10-01T05:48:02.135Z,18.98
2022-10-01T05:50:39.360Z,20.75
2022-10-01T05:53:08.329Z,17.67
2022-10-01T05:55:35.962Z,18.67
2022-10-01T05:58:05.464Z,18.05
2022-10-01T06:00:34.356Z,19.05
2022-10-01T06:03:03.203Z,16.85
2022-10-01T06:05:32.207Z,17.73
2022-10-01T06:08:00.051Z,19.42
2022-10-01T06:10:30.435Z,17.45
2022-10-01T06:13:02.193Z,17.33
2022-10-01T06:15:30.423Z,16.52
2022-10-01T06:18:01.483Z,19.23
2022-10-01T06:20:28.719Z,18.40
2022-10-01T06:22:57.503Z,18.50
2022-10-01T06:25:25.958Z,18.02
2022-10-01T06:27:55.689Z,23.75
2022-10-01T06:30:23.051Z,19.58
2022-10-01T06:32:50.129Z,19.83
2022-10-01T06:35:17.143Z,17.30
2022-10-01T06:37:44.246Z,20.77
2022-10-01T06:40:11.335Z,17.92
2022-10-01T06:42:38.410Z,18.25
2022-10-01T06:45:06.722Z,18.63
2022-10-01T06:47:33.761Z,19.98
2022-10-01T06:50:00.795Z,18.02
2022-10-01T06:52:46.341Z,22.10
2022-10-01T06:55:16.618Z,19.85
2022-10-01T06:57:44.321Z,20.83
2022-10-01T07:00:12.674Z,22.77
2022-10-01T07:02:40.683Z,18.30
2022-10-01T07:05:08.812Z,20.65
2022-10-01T07:07:38.140Z,20.42
2022-10-01T07:10:08.216Z,17.85
2022-10-01T07:12:36.814Z,19.75
2022-10-01T07:15:05.997Z,16.65
2022-10-01T07:17:34.334Z,17.45
2022-10-01T07:20:02.014Z,20.38
2022-10-01T07:22:29.136Z,20.00
2022-10-01T07:24:56.380Z,17.67
2022-10-01T07:27:23.419Z,18.05
2022-10-01T07:29:50.476Z,17.02
2022-10-01T07:32:17.597Z,14.25
2022-10-01T07:34:44.744Z,18.45
2022-10-01T07:37:12.029Z,17.10
2022-10-01T07:39:39.301Z,14.60
2022-10-01T07:42:06.774Z,18.50
2022-10-01T07:44:34.233Z,17.30
2022-10-01T07:47:01.436Z,16.42
2022-10-01T07:49:28.774Z,13.35
2022-10-01T07:51:56.158Z,16.38
2022-10-01T07:54:23.311Z,20.77
2022-10-01T07:56:53.266Z,16.50
2022-10-01T07:59:20.358Z,13.63
2022-10-01T08:01:54.426Z,12.80
2022-10-01T08:04:40.566Z,15.30
2022-10-01T08:07:08.737Z,14.60
2022-10-01T08:09:36.157Z,15.05
2022-10-01T08:12:03.300Z,12.32
2022-10-01T08:14:30.677Z,14.82
2022-10-01T08:16:58.275Z,12.82
2022-10-01T08:19:25.843Z,11.57
2022-10-01T08:21:53.054Z,10.80
2022-10-01T08:24:20.439Z,12.70
2022-10-01T08:26:53.841Z,16.17
2022-10-01T08:29:21.326Z,9.90
2022-10-01T08:31:49.332Z,13.52
2022-10-01T08:34:16.507Z,12.15
2022-10-01T08:36:43.750Z,10.65
2022-10-01T08:39:13.856Z,11.07
2022-10-01T08:42:15.577Z,9.70
2022-10-01T08:44:46.593Z,13.20
2022-10-01T08:47:16.803Z,9.48
2022-10-01T08:49:51.357Z,8.25
2022-10-01T08:52:28.677Z,9.25
2022-10-01T08:55:04.687Z,7.95
2022-10-01T08:57:40.770Z,7.65
2022-10-01T09:00:14.533Z,7.63
2022-10-01T09:02:44.010Z,8.07
2022-10-01T09:05:20.188Z,10.77
2022-10-01T09:08:16.388Z,9.00
2022-10-01T09:10:47.972Z,9.20
2022-10-01T09:13:33.674Z,7.40
2022-10-01T09:16:31.636Z,8.45
2022-10-01T09:19:10.987Z,7.25
2022-10-01T09:21:44.246Z,10.73
2022-10-01T09:24:42.388Z,5.18
2022-10-01T09:27:23.868Z,6.53
2022-10-01T09:29:58.632Z,6.97
2022-10-01T09:32:31.958Z,7.68
2022-10-01T09:35:06.087Z,5.50
2022-10-01T09:37:45.518Z,4.95
2022-10-01T09:40:35.129Z,5.95
2022-10-01T09:43:09.196Z,5.53
2022-10-01T09:45:38.573Z,5.95
2022-10-01T09:48:22.107Z,7.32
2022-10-01T09:50:59.348Z,5.05
2022-10-01T09:53:36.130Z,4.30
2022-10-01T09:56:33.556Z,7.07
2022-10-01T09:59:07.058Z,4.55
2022-10-01T10:01:43.583Z,5.35
2022-10-01T10:04:20.144Z,6.78
2022-10-01T10:06:49.082Z,3.85
2022-10-01T10:09:24.443Z,5.13
2022-10-01T10:11:52.030Z,4.32
2022-10-01T10:14:29.920Z,5.30
2022-10-01T10:16:57.721Z,4.32
2022-10-01T10:19:28.305Z,5.75
2022-10-01T10:22:14.121Z,4.63
2022-10-01T10:24:41.190Z,5.88
2022-10-01T10:27:26.947Z,5.97
2022-10-01T10:30:13.748Z,6.15
2022-10-01T10:32:41.734Z,4.20
2022-10-01T10:35:13.883Z,4.38
2022-10-01T10:37:48.887Z,4.35
2022-10-01T10:40:29.326Z,5.57
2022-10-01T10:42:58.694Z,4.95
2022-10-01T10:45:36.880Z,3.15
2022-10-01T10:48:07.674Z,5.18
2022-10-01T10:50:40.300Z,3.15
2022-10-01T10:53:26.347Z,3.30
2022-10-01T10:56:01.920Z,5.95
2022-10-01T10:58:33.648Z,3.80
2022-10-01T11:01:09.896Z,2.55
2022-10-01T11:03:42.557Z,5.22
2022-10-01T11:06:12.712Z,5.45
2022-10-01T11:08:40.368Z,4.60
2022-10-01T11:11:54.700Z,3.42
2022-10-01T11:14:56.598Z,3.03
2022-10-01T11:20:03.931Z,3.95
2022-10-01T11:22:40.382Z,4.07
2022-10-01T11:25:16.991Z,4.05
2022-10-01T11:28:05.168Z,3.17
2022-10-01T11:30:47.351Z,4.15
2022-10-01T11:33:31.034Z,3.67
2022-10-01T11:36:09.897Z,3.42
2022-10-01T11:38:46.027Z,3.40
2022-10-01T11:41:22.355Z,4.53
2022-10-01T11:44:07.802Z,2.40
2022-10-01T11:46:39.021Z,2.78
2022-10-01T11:51:57.348Z,2.53
2022-10-01T11:54:29.014Z,6.05
2022-10-01T11:57:17.343Z,5.18
2022-10-01T12:00:01.780Z,2.78
2022-10-01T12:02:46.578Z,3.25
2022-10-01T12:05:21.153Z,2.50
2022-10-01T12:07:59.604Z,4.00
2022-10-01T12:10:49.696Z,2.63
2022-10-01T12:13:16.789Z,3.83
2022-10-01T12:16:06.364Z,4.85
2022-10-01T12:18:58.221Z,2.50
2022-10-01T12:21:35.040Z,4.93
2022-10-01T12:24:14.598Z,3.85
2022-10-01T12:27:03.198Z,3.97
2022-10-01T12:29:57.679Z,4.88
2022-10-01T12:32:33.823Z,4.32
2022-10-01T12:35:35.593Z,3.60
2022-10-01T12:38:18.038Z,1.77
2022-10-01T12:40:59.445Z,1.08
2022-10-01T12:44:03.066Z,0.82
2022-10-01T12:47:19.410Z,0.77
2022-10-01T12:50:12.963Z,1.77
2022-10-01T12:52:49.165Z,2.47
2022-10-01T12:55:40.377Z,2.08
2022-10-01T12:58:20.678Z,2.03
2022-10-01T13:01:26.849Z,1.52
2022-10-01T13:04:14.061Z,2.45
2022-10-01T13:07:11.459Z,1.98
2022-10-01T13:09:46.583Z,1.50
2022-10-01T13:12:45.188Z,2.95
2022-10-01T13:15:21.559Z,2.50
2022-10-01T13:18:12.045Z,0.93
2022-10-01T13:20:42.178Z,1.98
2022-10-01T13:23:22.254Z,2.10
2022-10-01T13:25:59.511Z,1.90
2022-10-01T13:28:39.337Z,1.23
2022-10-01T13:31:15.162Z,1.40
2022-10-01T13:33:53.579Z,1.30
2022-10-01T13:36:33.691Z,1.30
2022-10-01T13:39:01.139Z,1.65
2022-10-01T13:41:34.057Z,1.73
2022-10-01T13:44:11.843Z,2.72
2022-10-01T13:46:52.971Z,3.42
2022-10-01T13:49:27.686Z,2.28
2022-10-01T13:51:56.359Z,2.03
2022-10-01T13:54:34.448Z,2.50
2022-10-01T13:57:27.227Z,3.60
2022-10-01T14:00:12.514Z,3.03
2022-10-01T14:02:43.075Z,3.42
2022-10-01T14:05:27.397Z,2.87
2022-10-01T14:08:14.351Z,4.35
2022-10-01T14:11:13.063Z,2.45
2022-10-01T14:14:05.554Z,5.78
2022-10-01T14:16:39.626Z,5.22
2022-10-01T14:19:07.784Z,3.05
2022-10-01T14:21:59.123Z,5.05
2022-10-01T14:24:41.181Z,2.83
2022-10-01T14:27:32.581Z,2.80
2022-10-01T14:30:30.897Z,2.38
2022-10-01T14:33:19.686Z,4.22
2022-10-01T14:36:11.880Z,3.83
2022-10-01T14:38:38.950Z,3.40
2022-10-01T14:41:06.580Z,3.38
2022-10-01T14:43:33.655Z,2.25
2022-10-01T14:46:04.170Z,3.30
2022-10-01T14:48:34.316Z,5.70
2022-10-01T14:51:05.231Z,5.43
2022-10-01T14:53:38.236Z,2.40
2022-10-01T14:56:14.317Z,2.58
2022-10-01T14:58:44.756Z,2.55
2022-10-01T15:01:23.112Z,3.58
2022-10-01T15:03:51.656Z,2.95
2022-10-01T15:06:24.519Z,2.38
2022-10-01T15:08:55.011Z,4.03
2022-10-01T15:11:27.929Z,4.47
2022-10-01T15:14:14.039Z,3.38
2022-10-01T15:16:41.243Z,4.38
2022-10-01T15:19:13.559Z,2.72
2022-10-01T15:21:51.005Z,4.03
2022-10-01T15:24:37.385Z,3.05
2022-10-01T15:27:05.341Z,2.92
2022-10-01T15:29:32.635Z,2.05
2022-10-01T15:32:01.152Z,3.90
2022-10-01T15:34:28.482Z,3.65
2022-10-01T15:36:56.955Z,4.13
2022-10-01T15:39:38.020Z,2.10
2022-10-01T15:42:21.998Z,2.95
2022-10-01T15:44:50.615Z,2.42
2022-10-01T15:47:23.459Z,2.10
2022-10-01T15:50:09.008Z,2.28
2022-10-01T15:52:50.838Z,2.00
2022-10-01T15:55:26.629Z,2.60
2022-10-01T15:58:04.629Z,3.55
2022-10-01T16:00:39.363Z,4.60
2022-10-01T16:03:06.616Z,2.50
2022-10-01T16:05:44.920Z,2.60
2022-10-01T16:08:23.326Z,4.00
2022-10-01T16:11:13.421Z,3.60
2022-10-01T16:13:43.107Z,2.95
2022-10-01T16:16:13.371Z,2.63
2022-10-01T16:18:41.931Z,5.50
2022-10-01T16:21:11.053Z,2.40
2022-10-01T16:23:48.010Z,3.97
2022-10-01T16:26:36.339Z,2.30
2022-10-01T16:29:27.098Z,2.40
2022-10-01T16:31:55.825Z,3.00
2022-10-01T16:34:23.124Z,3.58
2022-10-01T16:36:50.524Z,5.28
2022-10-01T16:39:17.967Z,4.80
2022-10-01T16:42:01.434Z,5.82
2022-10-01T16:44:40.005Z,5.70
2022-10-01T16:47:07.108Z,3.75
2022-10-01T16:49:34.697Z,2.97
2022-10-01T16:52:02.858Z,4.03
2022-10-01T16:54:30.034Z,4.57
2022-10-01T16:56:59.325Z,2.63
2022-10-01T16:59:26.503Z,6.22
2022-10-01T17:01:55.997Z,4.75
2022-10-01T17:04:23.879Z,3.17
2022-10-01T17:06:54.409Z,5.20
2022-10-01T17:09:23.306Z,3.50
2022-10-01T17:11:53.329Z,4.10
2022-10-01T17:14:21.766Z,5.00
2022-10-01T17:16:51.290Z,3.10
2022-10-01T17:19:23.282Z,2.88
2022-10-01T17:21:54.142Z,3.35
2022-10-01T17:24:25.984Z,5.50
2022-10-01T17:26:55.526Z,2.35
2022-10-01T17:29:22.696Z,2.53
2022-10-01T17:31:53.531Z,3.85
2022-10-01T17:34:21.604Z,2.80
2022-10-01T17:36:48.762Z,3.10
2022-10-01T17:39:16.090Z,3.22
2022-10-01T17:41:44.684Z,3.42
2022-10-01T17:44:11.798Z,3.65
2022-10-01T17:46:38.980Z,2.78
2022-10-01T17:49:06.354Z,5.65
2022-10-01T17:51:33.778Z,5.32
2022-10-01T17:54:02.676Z,2.85
2022-10-01T17:56:33.130Z,3.85
2022-10-01T17:59:00.683Z,3.22
2022-10-01T18:01:28.108Z,3.05
2022-10-01T18:03:56.717Z,2.38
2022-10-01T18:06:27.775Z,2.15
2022-10-01T18:08:56.561Z,3.40
2022-10-01T18:11:26.735Z,3.22
2022-10-01T18:13:54.094Z,3.10
2022-10-01T18:16:22.333Z,2.20
2022-10-01T18:21:46.446Z,6.95
2022-10-01T18:24:15.292Z,3.58
2022-10-01T18:26:42.652Z,3.03
2022-10-01T18:29:15.609Z,4.43
2022-10-01T18:31:45.170Z,3.70
2022-10-01T18:34:29.454Z,2.78
2022-10-01T18:37:22.754Z,2.45
2022-10-01T18:39:58.182Z,2.80
2022-10-01T18:42:28.458Z,3.22
2022-10-01T18:45:01.636Z,3.67
2022-10-01T18:47:39.024Z,2.90
2022-10-01T18:50:21.781Z,5.88
2022-10-01T18:53:02.867Z,4.05
2022-10-01T18:55:58.513Z,3.10
2022-10-01T18:58:46.657Z,2.88
2022-10-01T19:01:39.177Z,4.93
2022-10-01T19:04:36.656Z,3.88
2022-10-01T19:07:08.826Z,4.28
2022-10-01T19:10:14.584Z,3.25
2022-10-01T19:13:03.666Z,4.50
2022-10-01T19:15:56.224Z,3.90
2022-10-01T19:18:36.598Z,3.70
2022-10-01T19:21:37.637Z,3.38
2022-10-01T19:24:11.633Z,4.35
2022-10-01T19:26:47.885Z,3.00
2022-10-01T19:29:39.101Z,5.30
2022-10-01T19:32:17.828Z,3.40
2022-10-01T19:35:00.995Z,3.95
2022-10-01T19:37:34.213Z,3.97
2022-10-01T19:40:19.783Z,2.65
2022-10-01T19:42:53.925Z,2.50
2022-10-01T19:45:29.189Z,5.85
2022-10-01T19:48:30.077Z,4.32
2022-10-01T19:51:08.928Z,14.98
2022-10-01T19:53:39.813Z,6.25
2022-10-01T19:56:12.432Z,3.35
2022-10-01T19:58:39.521Z,5.03
2022-10-01T20:01:06.914Z,7.20
2022-10-01T20:03:39.150Z,4.72
2022-10-01T20:06:31.233Z,2.72
2022-10-01T20:09:20.937Z,4.00
2022-10-01T20:11:52.287Z,4.38
2022-10-01T20:14:44.045Z,4.40
2022-10-01T20:20:09.578Z,6.20
2022-10-01T20:23:06.447Z,3.95
2022-10-01T20:25:45.706Z,2.72
2022-10-01T20:28:25.108Z,2.50
2022-10-01T20:31:00.021Z,2.80
2022-10-01T20:33:48.690Z,3.38
2022-10-01T20:36:35.311Z,2.63
2022-10-01T20:39:31.294Z,2.25
2022-10-01T20:41:59.829Z,4.28
2022-10-01T20:44:33.921Z,2.50
2022-10-01T20:47:41.245Z,2.53
2022-10-01T20:50:21.141Z,2.88
2022-10-01T20:52:54.635Z,1.90
2022-10-01T20:55:33.310Z,2.85
2022-10-01T20:58:05.973Z,2.67
2022-10-01T21:00:34.575Z,2.90
2022-10-01T21:03:18.440Z,3.50
2022-10-01T21:05:53.052Z,7.07
2022-10-01T21:08:52.082Z,3.28
2022-10-01T21:11:25.753Z,2.58
2022-10-01T21:14:16.056Z,3.92
2022-10-01T21:16:49.238Z,2.85
2022-10-01T21:19:32.172Z,3.97
2022-10-01T21:22:17.400Z,3.17
2022-10-01T21:25:08.897Z,3.00
2022-10-01T21:28:28.601Z,3.42
2022-10-01T21:31:26.597Z,3.22
2022-10-01T21:33:58.395Z,4.60
2022-10-01T21:36:38.776Z,2.05
2022-10-01T21:39:25.094Z,2.45
2022-10-01T21:42:02.460Z,2.30
2022-10-01T21:44:42.447Z,4.15
2022-10-01T21:47:30.096Z,2.20
2022-10-01T21:50:20.751Z,4.03
2022-10-01T21:53:15.464Z,3.90
2022-10-01T21:56:01.248Z,4.13
2022-10-01T21:58:49.815Z,3.75
2022-10-01T22:01:32.039Z,3.92
2022-10-01T22:04:20.361Z,3.53
2022-10-01T22:07:04.404Z,2.45
2022-10-01T22:09:59.480Z,4.55
2022-10-01T22:12:28.957Z,2.50
2022-10-01T22:14:59.054Z,3.70
2022-10-01T22:17:32.158Z,3.90
2022-10-01T22:20:02.602Z,4.22
2022-10-01T22:22:42.106Z,4.35
2022-10-01T22:25:09.670Z,2.25
2022-10-01T22:27:52.324Z,2.20
2022-10-01T22:30:22.617Z,2.70
2022-10-01T22:32:57.103Z,2.40
2022-10-01T22:35:50.027Z,2.13
2022-10-01T22:38:35.609Z,4.50
2022-10-01T22:41:18.349Z,5.22
2022-10-01T22:43:46.053Z,3.92
2022-10-01T22:46:50.618Z,3.55
2022-10-01T22:49:51.505Z,2.30
2022-10-01T22:52:26.936Z,3.33
2022-10-01T22:55:15.325Z,3.17
2022-10-01T22:57:57.874Z,2.10
2022-10-01T23:00:26.380Z,2.60
2022-10-01T23:03:17.015Z,1.60
2022-10-01T23:05:49.509Z,1.55
2022-10-01T23:08:29.166Z,2.17
2022-10-01T23:11:26.043Z,2.33
2022-10-01T23:14:09.272Z,3.78
2022-10-01T23:16:59.044Z,3.15
2022-10-01T23:19:42.317Z,2.30
2022-10-01T23:22:24.821Z,4.07
2022-10-01T23:25:30.451Z,4.13
2022-10-01T23:28:15.217Z,2.08
2022-10-01T23:30:54.342Z,2.03
2022-10-01T23:33:31.263Z,3.33
2022-10-01T23:36:12.144Z,4.25
2022-10-01T23:38:42.241Z,1.95
2022-10-01T23:41:39.348Z,4.43
2022-10-01T23:44:31.631Z,1.50
2022-10-01T23:47:03.712Z,3.13
2022-10-01T23:49:36.073Z,4.30
2022-10-01T23:52:12.041Z,2.03
2022-10-01T23:54:54.459Z,2.38
2022-10-01T23:57:38.186Z,2.95
